Time;durP1;ratioP1;P1;durP2;ratioP2;P2;SDS_P1;SDS_P2;PMS_P1;PMS_P2;Temp;Humidity;BMP_temperature;BMP_pressure;BME280_temperature;BME280_humidity;BME280_pressure;Samples;Min_cycle;Max_cycle;Signal;HPM_P1;HPM_P2
2021/09/16 00:01:15;;;;;;;22.17;16.55;;;;;;;18.78;68.29;99771.95;2116968;83;21014;-80
2021/09/16 00:04:16;;;;;;;21.15;15.20;;;;;;;18.76;68.30;99770.85;2123690;83;22066;-81
2021/09/16 00:07:17;;;;;;;24.72;16.32;;;;;;;18.72;68.46;99762.91;2116658;83;20974;-79
2021/09/16 00:10:18;;;;;;;17.67;14.55;;;;;;;18.71;68.52;99768.52;2114967;83;21016;-79
2021/09/16 00:13:23;;;;;;;20.17;14.98;;;;;;;18.75;68.61;99767.03;2116704;83;21385;-80
2021/09/16 00:16:24;;;;;;;21.50;15.53;;;;;;;18.77;68.69;99768.45;2114802;83;21030;-78
2021/09/16 00:19:25;;;;;;;20.45;15.60;;;;;;;18.78;68.72;99762.55;2120204;83;21011;-79
2021/09/16 00:22:28;;;;;;;21.05;15.65;;;;;;;18.75;68.82;99762.51;2119913;83;21025;-79
2021/09/16 00:25:30;;;;;;;24.45;15.72;;;;;;;18.71;68.93;99755.91;2119184;83;21064;-81
2021/09/16 00:28:32;;;;;;;19.20;14.95;;;;;;;18.69;69.06;99752.61;2114937;83;20942;-78
2021/09/16 00:31:33;;;;;;;19.57;16.30;;;;;;;18.69;69.17;99755.83;2112834;83;21542;-81
2021/09/16 00:34:34;;;;;;;19.65;16.45;;;;;;;18.67;69.27;99746.67;2118657;83;20973;-79
2021/09/16 00:37:36;;;;;;;20.57;16.37;;;;;;;18.69;69.53;99747.24;2114741;83;21016;-80
2021/09/16 00:40:37;;;;;;;19.80;16.70;;;;;;;18.69;69.49;99735.68;2120838;83;21043;-80
2021/09/16 00:43:38;;;;;;;21.82;15.00;;;;;;;18.67;69.51;99732.39;2102926;83;21064;-82
2021/09/16 00:46:39;;;;;;;23.38;15.80;;;;;;;18.68;69.60;99728.67;2102245;84;21006;-80
2021/09/16 00:49:40;;;;;;;19.62;16.60;;;;;;;18.69;69.66;99727.62;2104771;84;21402;-79
2021/09/16 00:52:42;;;;;;;23.45;16.30;;;;;;;18.70;69.89;99734.13;2069227;84;21028;-80
2021/09/16 00:55:45;;;;;;;25.17;17.52;;;;;;;18.69;70.04;99733.80;2071269;84;21069;-81
2021/09/16 00:58:49;;;;;;;21.55;15.53;;;;;;;18.70;69.93;99729.28;2101365;84;21046;-81
2021/09/16 01:01:50;;;;;;;20.95;15.03;;;;;;;18.73;69.93;99736.34;2103047;84;21658;-81
2021/09/16 01:04:53;;;;;;;21.12;16.20;;;;;;;18.74;70.02;99736.66;2105829;84;20981;-83
2021/09/16 01:07:58;;;;;;;21.17;15.63;;;;;;;18.75;70.08;99734.79;2031539;85;20983;-79
2021/09/16 01:10:59;;;;;;;17.92;16.00;;;;;;;18.74;70.14;99733.16;2069304;84;21007;-78
2021/09/16 01:14:02;;;;;;;22.07;16.45;;;;;;;18.72;70.13;99738.72;2102385;84;21027;-80
2021/09/16 01:17:05;;;;;;;19.90;14.98;;;;;;;18.72;70.16;99737.91;2093847;84;20992;-80
2021/09/16 01:20:09;;;;;;;20.32;15.18;;;;;;;18.70;70.22;99739.50;2114543;83;20992;-80
2021/09/16 01:23:11;;;;;;;22.32;16.82;;;;;;;18.70;70.25;99740.02;2111820;83;20992;-79
2021/09/16 01:26:15;;;;;;;21.07;16.17;;;;;;;18.67;70.30;99738.61;2113810;83;21013;-81
2021/09/16 01:29:18;;;;;;;20.48;15.83;;;;;;;18.66;70.36;99745.55;2114541;83;20980;-79
2021/09/16 01:32:19;;;;;;;26.85;17.50;;;;;;;18.65;70.45;99742.57;2110686;83;21061;-80
2021/09/16 01:35:22;;;;;;;19.12;14.95;;;;;;;18.60;70.55;99740.03;2064755;84;21077;-80
2021/09/16 01:38:23;;;;;;;20.10;15.48;;;;;;;18.55;70.69;99735.05;2099919;84;21600;-79
2021/09/16 01:41:26;;;;;;;17.98;15.55;;;;;;;18.54;70.76;99741.48;2102576;83;21032;-77
2021/09/16 01:44:29;;;;;;;19.62;16.42;;;;;;;18.56;70.91;99748.80;2121423;83;20998;-81
2021/09/16 01:47:30;;;;;;;18.75;16.65;;;;;;;18.54;70.88;99737.45;2119059;83;20992;-80
2021/09/16 01:50:32;;;;;;;21.82;16.20;;;;;;;18.52;70.96;99738.19;2119651;83;20997;-80
2021/09/16 01:53:33;;;;;;;18.82;15.48;;;;;;;18.51;71.13;99736.56;2116670;83;21511;-81
2021/09/16 01:56:36;;;;;;;18.95;14.50;;;;;;;18.50;71.19;99732.22;2063480;84;21011;-80
2021/09/16 01:59:37;;;;;;;18.82;15.35;;;;;;;18.48;71.33;99731.12;2114344;83;20982;-77
2021/09/16 02:02:41;;;;;;;16.77;14.98;;;;;;;18.45;71.42;99738.30;2060910;84;21528;-79
2021/09/16 02:05:44;;;;;;;19.37;16.42;;;;;;;18.43;71.53;99731.50;2126749;82;21005;-81
2021/09/16 02:08:45;;;;;;;17.30;14.63;;;;;;;18.40;71.60;99734.65;2130582;82;21897;-80
2021/09/16 02:11:48;;;;;;;19.20;15.00;;;;;;;18.37;71.72;99726.52;2129716;82;20998;-81
2021/09/16 02:14:49;;;;;;;20.10;16.12;;;;;;;18.32;71.77;99724.50;2122940;82;21034;-80
2021/09/16 02:17:50;;;;;;;21.97;16.27;;;;;;;18.31;71.87;99718.03;2126415;82;21022;-79
2021/09/16 02:20:51;;;;;;;19.48;16.55;;;;;;;18.28;71.93;99724.67;2127968;82;21028;-82
2021/09/16 02:23:52;;;;;;;18.02;15.85;;;;;;;18.24;72.09;99718.10;2125727;82;20984;-81
2021/09/16 02:26:54;;;;;;;20.97;15.80;;;;;;;18.15;72.19;99722.97;2129709;81;21539;-80
2021/09/16 02:29:57;;;;;;;17.87;16.02;;;;;;;18.12;72.41;99722.61;2132460;82;21473;-80
2021/09/16 02:32:58;;;;;;;21.85;17.07;;;;;;;18.08;72.47;99721.43;2129509;82;21014;-81
2021/09/16 02:36:00;;;;;;;19.07;15.45;;;;;;;18.05;72.61;99725.38;2121671;82;21659;-80
2021/09/16 02:39:05;;;;;;;17.70;15.80;;;;;;;18.05;72.69;99727.25;2125970;82;20988;-81
2021/09/16 02:42:09;;;;;;;20.77;17.17;;;;;;;18.03;72.88;99718.06;2133668;82;21083;-81
2021/09/16 02:45:13;;;;;;;20.32;16.42;;;;;;;18.01;72.93;99722.02;2148571;82;21074;-82
2021/09/16 02:48:14;;;;;;;18.10;16.20;;;;;;;18.02;73.11;99724.49;2150907;82;21425;-79
2021/09/16 02:51:17;;;;;;;21.15;16.37;;;;;;;18.02;73.15;99720.97;2147567;82;21073;-78
2021/09/16 02:54:18;;;;;;;18.12;16.23;;;;;;;18.00;73.25;99717.17;2150287;81;20968;-80
2021/09/16 02:57:22;;;;;;;20.88;16.52;;;;;;;17.97;73.49;99724.34;2148737;82;21021;-80
2021/09/16 03:00:22;;;;;;;24.07;16.95;;;;;;;17.94;73.83;99722.64;2149062;82;21030;-77
2021/09/16 03:03:23;;;;;;;23.10;16.05;;;;;;;17.91;73.79;99727.41;2148433;82;21033;-81
2021/09/16 03:06:28;;;;;;;18.67;16.00;;;;;;;17.89;74.04;99721.42;2148431;82;21033;-79
2021/09/16 03:09:29;;;;;;;19.92;17.73;;;;;;;17.87;74.28;99726.19;2146619;82;20996;-80
2021/09/16 03:12:30;;;;;;;18.90;16.93;;;;;;;17.86;74.38;99732.61;2155460;82;21580;-79
2021/09/16 03:15:31;;;;;;;22.02;18.02;;;;;;;17.84;74.44;99737.38;2151928;82;21035;-79
2021/09/16 03:18:33;;;;;;;21.65;17.20;;;;;;;17.82;74.57;99732.78;2149197;82;20998;-81
2021/09/16 03:21:35;;;;;;;20.72;17.98;;;;;;;17.80;74.75;99732.17;2150141;82;20962;-79
2021/09/16 03:24:36;;;;;;;20.05;17.92;;;;;;;17.76;74.86;99729.59;2149673;81;21006;-80
2021/09/16 03:27:37;;;;;;;18.40;16.50;;;;;;;17.75;74.93;99731.98;2147849;82;21529;-81
2021/09/16 03:30:39;;;;;;;21.37;16.85;;;;;;;17.74;75.03;99734.87;2149463;82;21123;-79
2021/09/16 03:33:40;;;;;;;23.77;17.80;;;;;;;17.73;75.25;99735.40;2149484;81;20955;-78
2021/09/16 03:36:42;;;;;;;21.70;17.25;;;;;;;17.75;75.38;99733.33;2151423;82;21034;-78
2021/09/16 03:39:43;;;;;;;21.05;17.23;;;;;;;17.76;75.40;99718.86;2148841;82;21453;-78
2021/09/16 03:42:46;;;;;;;18.73;16.73;;;;;;;17.75;75.37;99722.59;2140383;82;21036;-79
2021/09/16 03:45:47;;;;;;;18.73;16.27;;;;;;;17.74;75.49;99728.17;2131074;82;21475;-79
2021/09/16 03:48:48;;;;;;;18.85;16.85;;;;;;;17.76;75.62;99734.14;2131446;81;21040;-80
2021/09/16 03:51:49;;;;;;;18.32;16.30;;;;;;;17.79;75.73;99742.59;2129275;82;20990;-81
2021/09/16 03:54:50;;;;;;;22.58;18.32;;;;;;;17.79;75.76;99741.25;2126709;81;21020;-82
2021/09/16 03:57:52;;;;;;;20.55;16.60;;;;;;;17.79;75.80;99742.59;2126982;82;21499;-81
2021/09/16 04:00:53;;;;;;;20.12;17.50;;;;;;;17.79;75.80;99745.27;2123601;81;21027;-78
2021/09/16 04:03:55;;;;;;;19.60;16.85;;;;;;;17.80;75.91;99738.06;2125984;82;21013;-81
2021/09/16 04:06:56;;;;;;;18.70;16.02;;;;;;;17.81;75.97;99743.19;2122550;82;20987;-79
2021/09/16 04:09:57;;;;;;;23.05;17.32;;;;;;;17.81;76.19;99740.51;2128696;81;21482;-80
2021/09/16 04:12:58;;;;;;;20.70;17.45;;;;;;;17.80;76.09;99744.25;2127733;82;21001;-80
2021/09/16 04:16:00;;;;;;;17.62;15.63;;;;;;;17.80;76.18;99745.59;2130728;82;21051;-80
2021/09/16 04:19:01;;;;;;;22.22;16.40;;;;;;;17.78;76.21;99746.33;2126455;82;21076;-80
2021/09/16 04:22:03;;;;;;;18.05;16.10;;;;;;;17.79;76.30;99747.14;2130320;82;21018;-80
2021/09/16 04:25:05;;;;;;;19.45;16.05;;;;;;;17.79;76.35;99741.25;2129464;82;21513;-78
2021/09/16 04:28:06;;;;;;;23.22;17.00;;;;;;;17.79;76.43;99740.43;2128660;82;20996;-80
2021/09/16 04:31:08;;;;;;;21.42;16.20;;;;;;;17.80;76.54;99739.41;2127386;82;21068;-76
2021/09/16 04:34:10;;;;;;;17.62;15.55;;;;;;;17.81;76.49;99737.83;2125758;81;21567;-81
2021/09/16 04:37:11;;;;;;;16.87;15.18;;;;;;;17.82;76.58;99735.46;2136405;82;20955;-78
2021/09/16 04:40:12;;;;;;;22.58;16.67;;;;;;;17.81;76.75;99733.80;2127195;81;21510;-80
2021/09/16 04:43:14;;;;;;;18.57;16.42;;;;;;;17.80;76.76;99736.20;2137225;82;21042;-81
2021/09/16 04:46:15;;;;;;;19.48;17.32;;;;;;;17.81;76.75;99743.19;2146138;82;20987;-78
2021/09/16 04:49:17;;;;;;;25.05;17.30;;;;;;;17.81;76.80;99746.41;2148116;82;20958;-78
2021/09/16 04:52:18;;;;;;;20.85;17.90;;;;;;;17.84;76.77;99748.11;2150483;82;21470;-80
2021/09/16 04:55:20;;;;;;;19.05;16.70;;;;;;;17.84;76.83;99750.80;2148316;82;20978;-79
2021/09/16 04:58:21;;;;;;;17.02;15.28;;;;;;;17.86;76.92;99747.91;2148396;82;21018;-78
2021/09/16 05:01:23;;;;;;;18.23;15.80;;;;;;;17.87;76.94;99751.69;2119991;81;21548;-80
2021/09/16 05:04:24;;;;;;;17.98;16.15;;;;;;;17.87;77.09;99746.31;2149361;82;21002;-80
2021/09/16 05:07:26;;;;;;;19.02;16.70;;;;;;;17.88;77.12;99746.64;2150185;82;21030;-76
2021/09/16 05:10:27;;;;;;;19.35;15.03;;;;;;;17.84;77.21;99742.74;2148010;82;21464;-81
2021/09/16 05:13:29;;;;;;;19.37;16.30;;;;;;;17.84;77.30;99751.32;2149635;82;21533;-78
2021/09/16 05:16:30;;;;;;;18.77;16.87;;;;;;;17.85;77.39;99752.95;2150695;82;21649;-79
2021/09/16 05:19:31;;;;;;;21.62;15.43;;;;;;;17.86;77.53;99753.27;2147137;82;21006;-79
2021/09/16 05:22:33;;;;;;;20.02;16.27;;;;;;;17.91;77.61;99755.58;2149091;82;20990;-80
2021/09/16 05:25:34;;;;;;;17.37;14.98;;;;;;;17.97;77.64;99756.55;2149744;82;21434;-80
2021/09/16 05:28:36;;;;;;;16.52;14.70;;;;;;;18.06;77.97;99751.70;2148482;82;21539;-79
2021/09/16 05:31:38;;;;;;;18.35;15.88;;;;;;;18.21;77.96;99748.63;2147376;81;21554;-82
2021/09/16 05:34:39;;;;;;;20.70;16.07;;;;;;;18.30;77.77;99758.00;2146755;82;21023;-81
2021/09/16 05:37:41;;;;;;;21.93;16.00;;;;;;;18.40;77.82;99761.51;2149207;82;21433;-81
2021/09/16 05:40:42;;;;;;;15.72;14.13;;;;;;;18.48;77.87;99766.57;2148936;82;21023;-80
2021/09/16 05:43:43;;;;;;;17.55;15.30;;;;;;;18.57;77.81;99761.17;2137961;82;20985;-81
2021/09/16 05:46:45;;;;;;;16.48;14.55;;;;;;;18.65;77.67;99768.10;2125958;82;21649;-82
2021/09/16 05:49:47;;;;;;;20.52;14.78;;;;;;;18.75;77.85;99765.19;2125599;82;20970;-79
2021/09/16 05:52:48;;;;;;;15.63;13.83;;;;;;;18.87;77.82;99767.10;2125621;82;20990;-79
2021/09/16 05:55:49;;;;;;;20.88;14.80;;;;;;;19.05;77.87;99767.02;2125145;81;21474;-79
2021/09/16 05:58:51;;;;;;;18.23;15.15;;;;;;;19.28;77.85;99772.95;2125798;82;20977;-80
2021/09/16 06:01:53;;;;;;;16.10;14.45;;;;;;;19.42;77.40;99770.86;2121415;81;21068;-81
2021/09/16 06:04:54;;;;;;;20.10;14.80;;;;;;;19.49;77.05;99769.70;2123581;82;21001;-82
2021/09/16 06:07:55;;;;;;;17.05;13.98;;;;;;;19.61;77.01;99764.31;2128461;82;21001;-81
2021/09/16 06:10:57;;;;;;;16.45;14.30;;;;;;;19.74;76.71;99764.64;2125866;81;21092;-81
2021/09/16 06:13:58;;;;;;;15.93;14.33;;;;;;;19.93;76.72;99769.34;2125218;82;21483;-80
2021/09/16 06:17:01;;;;;;;15.48;13.13;;;;;;;20.18;76.56;99774.45;2125101;82;21050;-78
2021/09/16 06:20:05;;;;;;;17.57;13.55;;;;;;;20.43;76.21;99771.45;2128325;82;21036;-72
2021/09/16 06:23:06;;;;;;;14.73;12.73;;;;;;;20.67;76.10;99771.41;2128460;82;21004;-74
2021/09/16 06:26:08;;;;;;;17.23;13.45;;;;;;;21.02;75.68;99772.02;2127250;82;20989;-73
2021/09/16 06:29:10;;;;;;;15.68;12.47;;;;;;;21.21;75.00;99775.30;2125875;82;21034;-73
2021/09/16 06:32:11;;;;;;;15.50;13.08;;;;;;;21.24;74.76;99776.70;2125521;82;21600;-72
2021/09/16 06:35:14;;;;;;;15.50;12.82;;;;;;;21.23;74.26;99779.09;2127226;82;20977;-72
2021/09/16 06:38:16;;;;;;;13.93;11.90;;;;;;;21.11;74.15;99775.13;2129424;82;21061;-73
2021/09/16 06:41:17;;;;;;;15.53;12.40;;;;;;;21.01;73.81;99782.52;2132499;82;21031;-71
2021/09/16 06:44:19;;;;;;;14.23;12.65;;;;;;;20.98;73.77;99783.55;2132064;82;21053;-72
2021/09/16 06:47:20;;;;;;;13.70;11.70;;;;;;;20.97;73.85;99788.10;2120530;83;21003;-72
2021/09/16 06:50:22;;;;;;;14.50;11.97;;;;;;;20.96;73.58;99782.44;2123460;83;21041;-73
2021/09/16 06:53:23;;;;;;;15.28;11.75;;;;;;;20.96;73.62;99787.02;2124754;83;21023;-72
2021/09/16 06:56:25;;;;;;;14.90;12.13;;;;;;;20.90;73.32;99787.45;2119852;83;21516;-71
2021/09/16 06:59:26;;;;;;;15.05;12.37;;;;;;;20.86;73.39;99790.33;2126527;83;21011;-72
2021/09/16 07:02:28;;;;;;;16.10;12.93;;;;;;;20.82;73.36;99797.28;2123340;83;20972;-72
2021/09/16 07:05:29;;;;;;;15.28;13.68;;;;;;;20.74;73.31;99798.48;2123694;83;21003;-71
2021/09/16 07:08:30;;;;;;;18.55;14.23;;;;;;;20.70;73.28;99797.34;2123775;83;21021;-73
2021/09/16 07:11:32;;;;;;;17.17;14.07;;;;;;;20.71;73.28;99799.50;2124954;83;20990;-72
2021/09/16 07:14:34;;;;;;;16.35;14.60;;;;;;;20.68;73.26;99806.19;2125681;83;20995;-72
2021/09/16 07:17:35;;;;;;;15.93;14.23;;;;;;;20.69;73.32;99809.16;2126036;83;20988;-73
2021/09/16 07:20:37;;;;;;;17.02;14.00;;;;;;;20.70;73.25;99807.31;2124464;83;21470;-72
2021/09/16 07:23:38;;;;;;;19.75;13.80;;;;;;;20.67;73.13;99810.48;2126879;83;21001;-71
2021/09/16 07:26:40;;;;;;;16.05;14.35;;;;;;;20.66;73.24;99808.30;2124650;83;21018;-72
2021/09/16 07:29:41;;;;;;;19.70;15.20;;;;;;;20.67;73.28;99807.26;2122364;83;20992;-72
2021/09/16 07:32:43;;;;;;;15.32;13.72;;;;;;;20.67;73.42;99811.30;2127893;83;21022;-72
2021/09/16 07:35:45;;;;;;;18.87;15.25;;;;;;;20.71;73.33;99810.28;2127563;83;21463;-73
2021/09/16 07:38:47;;;;;;;17.48;15.65;;;;;;;20.74;73.42;99814.66;2128182;82;21059;-72
2021/09/16 07:41:51;;;;;;;15.78;14.23;;;;;;;20.74;73.37;99816.54;2124533;83;21006;-71
2021/09/16 07:44:53;;;;;;;17.30;15.45;;;;;;;20.73;73.49;99816.27;2140565;82;21092;-72
2021/09/16 07:47:54;;;;;;;17.65;15.85;;;;;;;20.71;73.51;99822.41;2148626;82;21057;-72
2021/09/16 07:50:56;;;;;;;19.73;16.32;;;;;;;20.71;73.49;99829.16;2149704;81;21018;-73
2021/09/16 07:53:57;;;;;;;18.80;16.93;;;;;;;20.65;73.44;99825.54;2150487;82;21673;-73
2021/09/16 07:56:58;;;;;;;19.25;16.12;;;;;;;20.63;73.74;99824.14;2147498;82;21006;-72
2021/09/16 08:00:00;;;;;;;19.27;17.40;;;;;;;20.64;73.80;99839.24;2146409;82;21030;-72
2021/09/16 08:03:01;;;;;;;20.40;18.42;;;;;;;20.62;73.93;99833.30;2148431;81;20995;-71
2021/09/16 08:06:03;;;;;;;19.62;17.65;;;;;;;20.65;74.05;99835.51;2148131;82;20974;-72
2021/09/16 08:09:05;;;;;;;21.02;18.48;;;;;;;20.65;73.98;99832.81;2147250;82;20951;-72
2021/09/16 08:12:07;;;;;;;20.72;18.52;;;;;;;20.69;74.22;99826.69;2149117;82;21080;-72
2021/09/16 08:15:10;;;;;;;21.62;19.20;;;;;;;20.75;74.14;99833.84;2149922;82;20991;-73
2021/09/16 08:18:12;;;;;;;22.48;18.00;;;;;;;20.87;74.05;99839.17;2147722;82;21017;-72
2021/09/16 08:21:15;;;;;;;20.60;16.27;;;;;;;20.97;74.15;99838.00;2153072;82;20970;-72
2021/09/16 08:24:16;;;;;;;18.50;15.28;;;;;;;21.05;73.80;99838.95;2150158;82;21527;-72
2021/09/16 08:27:18;;;;;;;18.95;16.23;;;;;;;21.09;73.71;99842.52;2148669;82;20982;-72
2021/09/16 08:30:19;;;;;;;21.20;16.80;;;;;;;21.20;73.74;99841.63;2149344;82;21034;-73
2021/09/16 08:33:21;;;;;;;18.67;16.12;;;;;;;21.33;73.49;99838.63;2152587;82;20976;-73
2021/09/16 08:36:23;;;;;;;18.25;15.30;;;;;;;21.49;73.48;99837.05;2148191;81;21545;-73
2021/09/16 08:39:24;;;;;;;16.50;14.80;;;;;;;21.67;73.45;99838.12;2152146;82;20974;-82
2021/09/16 08:42:27;;;;;;;16.85;15.05;;;;;;;21.88;73.31;99831.16;2149136;82;21019;-81
2021/09/16 08:45:28;;;;;;;19.17;15.72;;;;;;;22.12;73.08;99830.94;2129242;82;21060;-81
2021/09/16 08:48:30;;;;;;;24.47;15.95;;;;;;;22.30;72.39;99841.50;2125659;81;21071;-81
2021/09/16 08:51:33;;;;;;;20.55;15.03;;;;;;;22.31;71.77;99843.13;2121010;81;21042;-84
2021/09/16 08:54:36;;;;;;;17.62;14.68;;;;;;;22.37;71.61;99843.46;2127531;81;21533;-82
2021/09/16 08:57:41;;;;;;;17.42;15.20;;;;;;;22.68;71.77;99837.61;2123525;82;20967;-80
2021/09/16 09:00:42;;;;;;;23.47;13.58;;;;;;;22.91;71.19;99831.91;2134038;82;21000;-84
2021/09/16 09:03:44;;;;;;;22.45;13.32;;;;;;;22.97;70.65;99832.27;2120193;82;21017;-82
2021/09/16 09:06:45;;;;;;;16.65;12.33;;;;;;;22.99;70.01;99829.31;2123787;81;20971;-83
2021/09/16 09:09:47;;;;;;;16.73;11.25;;;;;;;22.95;69.65;99832.23;2126810;82;21015;-84
2021/09/16 09:12:48;;;;;;;13.00;11.63;;;;;;;22.89;69.30;99834.58;2121208;82;20996;-82
2021/09/16 09:16:08;;;;;;;15.83;12.20;;;;;;;22.73;69.12;99831.73;2125230;82;21005;-82
2021/09/16 09:19:18;;;;;;;19.25;12.25;;;;;;;22.67;69.28;99830.58;2127320;82;21514;-82
2021/09/16 09:22:30;;;;;;;14.03;11.10;;;;;;;22.61;69.15;99827.00;2124254;82;21352;-84
2021/09/16 09:25:31;;;;;;;13.62;12.15;;;;;;;22.52;69.12;99831.20;2131104;82;21467;-82
2021/09/16 09:28:34;;;;;;;17.10;11.63;;;;;;;22.48;69.16;99823.33;2125690;82;21449;-82
2021/09/16 09:31:41;;;;;;;19.05;11.43;;;;;;;22.54;69.17;99823.66;2127405;82;20987;-84
2021/09/16 09:34:43;;;;;;;14.80;11.03;;;;;;;22.54;68.92;99827.72;2123951;82;21043;-84
2021/09/16 09:37:44;;;;;;;19.10;12.50;;;;;;;22.53;69.07;99831.50;2127782;82;21509;-82
2021/09/16 09:40:54;;;;;;;14.60;10.60;;;;;;;22.49;68.89;99826.30;2129699;81;21502;-82
2021/09/16 09:44:12;;;;;;;13.88;10.93;;;;;;;22.43;69.18;99832.18;2122886;82;21089;-86
2021/09/16 09:47:14;;;;;;;11.88;9.25;;;;;;;22.45;69.19;99831.41;2127112;81;20998;-83
2021/09/16 09:50:26;;;;;;;11.03;8.65;;;;;;;22.35;68.83;99833.42;2129620;82;21049;-81
2021/09/16 09:53:27;;;;;;;12.30;9.20;;;;;;;22.27;69.14;99831.19;2125004;82;21368;-83
2021/09/16 09:56:29;;;;;;;11.95;9.63;;;;;;;22.32;69.42;99823.66;2125875;82;21028;-82
2021/09/16 09:59:56;;;;;;;11.55;8.88;;;;;;;22.34;69.22;99823.70;2128411;82;20926;-83
2021/09/16 10:03:00;;;;;;;12.35;8.40;;;;;;;22.33;69.13;99832.08;2125057;82;20996;-82
2021/09/16 10:06:10;;;;;;;11.55;7.95;;;;;;;22.39;69.34;99824.30;2127883;82;21587;-82
2021/09/16 10:09:13;;;;;;;12.10;7.75;;;;;;;22.31;68.96;99826.91;2124606;81;21062;-83
2021/09/16 10:12:15;;;;;;;12.10;7.78;;;;;;;22.12;69.23;99823.65;2127960;82;20976;-81
2021/09/16 10:15:20;;;;;;;9.45;7.60;;;;;;;21.92;69.72;99832.29;2127705;82;22427;-83
2021/09/16 10:18:22;;;;;;;8.73;7.33;;;;;;;21.72;70.38;99834.70;2120565;82;21572;-84
2021/09/16 10:21:23;;;;;;;9.45;7.03;;;;;;;21.55;70.76;99837.94;2125392;82;21040;-82
2021/09/16 10:24:25;;;;;;;9.13;7.20;;;;;;;21.56;71.44;99832.28;2129506;82;21601;-84
2021/09/16 10:27:40;;;;;;;12.10;8.65;;;;;;;21.65;71.93;99832.69;2133894;82;21506;-80
2021/09/16 10:30:49;;;;;;;12.98;7.40;;;;;;;21.80;72.28;99830.77;2127801;81;21003;-82
2021/09/16 10:33:50;;;;;;;10.63;7.40;;;;;;;22.02;72.56;99825.39;2128771;82;20991;-84
2021/09/16 10:37:15;;;;;;;10.55;6.20;;;;;;;22.27;72.57;99825.79;2131892;82;21031;-83
2021/09/16 10:40:24;;;;;;;8.73;6.45;;;;;;;22.45;72.08;99822.48;2128607;82;20992;-82
2021/09/16 10:43:25;;;;;;;8.15;7.03;;;;;;;22.58;72.09;99824.78;2130007;81;21032;-83
2021/09/16 10:46:46;;;;;;;7.42;6.30;;;;;;;22.53;71.46;99822.85;2133126;81;21048;-83
2021/09/16 10:49:50;;;;;;;8.88;5.92;;;;;;;22.49;71.43;99818.19;2136168;82;21401;-84
2021/09/16 10:53:03;;;;;;;7.37;6.67;;;;;;;22.37;71.22;99825.89;2135302;82;21022;-83
2021/09/16 10:56:08;;;;;;;9.95;7.67;;;;;;;22.24;71.10;99824.09;2073563;81;21059;-84
2021/09/16 10:59:09;;;;;;;8.18;7.37;;;;;;;22.15;71.45;99827.20;2138065;82;21052;-83
2021/09/16 11:02:11;;;;;;;9.20;7.40;;;;;;;22.09;71.47;99821.98;2140291;82;21629;-83
2021/09/16 11:05:18;;;;;;;11.15;6.95;;;;;;;22.04;71.67;99819.21;2133970;81;21100;-82
2021/09/16 11:08:24;;;;;;;8.58;6.60;;;;;;;22.02;71.89;99822.69;2129446;82;20971;-83
2021/09/16 11:11:48;;;;;;;7.17;6.47;;;;;;;22.07;72.02;99818.70;2102950;82;21437;-83
2021/09/16 11:14:55;;;;;;;7.70;6.90;;;;;;;22.16;72.21;99821.28;2134413;82;21024;-84
2021/09/16 11:18:06;;;;;;;7.67;6.78;;;;;;;22.21;72.36;99820.01;2136022;81;21495;-81
2021/09/16 11:21:08;;;;;;;8.18;7.37;;;;;;;22.27;72.03;99819.03;2133059;82;21082;-83
2021/09/16 11:24:10;;;;;;;7.85;7.15;;;;;;;22.31;72.01;99824.74;2129403;82;20954;-86
2021/09/16 11:27:11;;;;;;;7.80;7.03;;;;;;;22.28;71.76;99822.00;2141327;82;21046;-82
2021/09/16 11:30:17;;;;;;;7.47;6.78;;;;;;;22.15;71.92;99815.58;2106449;82;21005;-81
2021/09/16 11:33:20;;;;;;;6.83;6.33;;;;;;;22.01;71.75;99823.77;2134580;82;21475;-81
2021/09/16 11:36:21;;;;;;;7.37;6.45;;;;;;;21.82;71.52;99829.97;2136029;82;21641;-83
2021/09/16 11:39:23;;;;;;;6.97;6.28;;;;;;;21.49;71.84;99837.86;2133353;81;21018;-84
2021/09/16 11:42:25;;;;;;;7.45;6.75;;;;;;;21.23;71.90;99840.64;2131536;82;21030;-84
2021/09/16 11:45:48;;;;;;;8.78;7.45;;;;;;;20.94;72.24;99841.71;2140475;81;21034;-81
2021/09/16 11:48:50;;;;;;;10.20;7.95;;;;;;;20.72;72.65;99828.92;2152130;82;21269;-81
2021/09/16 11:51:54;;;;;;;8.25;7.53;;;;;;;20.58;73.08;99839.67;2152827;82;21039;-82
2021/09/16 11:55:05;;;;;;;9.15;8.33;;;;;;;20.47;73.37;99837.30;2149595;82;21022;-84
2021/09/16 11:58:25;;;;;;;9.95;8.85;;;;;;;20.37;73.69;99831.69;2149119;82;21037;-82
2021/09/16 12:01:26;;;;;;;14.65;9.60;;;;;;;20.28;74.13;99833.93;2148808;81;20974;-79
2021/09/16 12:04:43;;;;;;;9.90;8.95;;;;;;;20.23;74.40;99824.92;2150294;82;21007;-82
2021/09/16 12:07:45;;;;;;;11.85;9.98;;;;;;;20.19;74.65;99828.63;2147119;82;21025;-84
2021/09/16 12:10:54;;;;;;;10.70;9.60;;;;;;;20.14;74.80;99825.28;2155063;82;21045;-81
2021/09/16 12:13:59;;;;;;;11.12;9.65;;;;;;;20.13;75.10;99826.35;2148811;82;21051;-81
2021/09/16 12:17:05;;;;;;;12.18;10.18;;;;;;;20.12;75.04;99822.00;2122502;82;21054;-81
2021/09/16 12:20:07;;;;;;;12.78;11.25;;;;;;;20.14;75.27;99814.52;2154394;82;21023;-82
2021/09/16 12:23:11;;;;;;;14.55;10.23;;;;;;;20.20;75.50;99814.62;2150191;82;21477;-81
2021/09/16 12:26:16;;;;;;;17.80;11.05;;;;;;;20.27;75.57;99815.30;2146674;82;21042;-82
2021/09/16 12:29:24;;;;;;;12.03;10.80;;;;;;;20.29;75.67;99812.66;2148997;82;21071;-82
2021/09/16 12:32:32;;;;;;;12.28;11.00;;;;;;;20.38;75.84;99815.80;2151408;81;21561;-83
2021/09/16 12:35:33;;;;;;;10.82;9.55;;;;;;;20.48;75.96;99811.97;2151388;82;21002;-82
2021/09/16 12:38:48;;;;;;;12.85;10.03;;;;;;;20.57;75.92;99814.60;2150252;82;20991;-83
2021/09/16 12:41:59;;;;;;;15.40;11.43;;;;;;;20.60;75.86;99815.47;2146093;82;21015;-83
2021/09/16 12:45:11;;;;;;;15.28;11.45;;;;;;;20.63;75.85;99818.75;2154239;82;21046;-82
2021/09/16 12:48:15;;;;;;;15.35;11.93;;;;;;;20.62;76.11;99819.81;2146671;82;21041;-84
2021/09/16 12:51:19;;;;;;;12.35;10.95;;;;;;;20.65;76.26;99820.15;2146906;82;21045;-84
2021/09/16 12:54:23;;;;;;;12.88;11.48;;;;;;;20.62;76.21;99817.13;2149880;82;21014;-82
2021/09/16 12:57:31;;;;;;;18.70;11.57;;;;;;;20.59;76.29;99820.58;2147734;82;20998;-82
2021/09/16 13:00:32;;;;;;;14.45;11.05;;;;;;;20.61;76.51;99812.27;2145067;82;21034;-83
2021/09/16 13:03:34;;;;;;;13.25;11.35;;;;;;;20.67;76.72;99813.19;2150883;81;21006;-85
2021/09/16 13:06:35;;;;;;;22.32;13.22;;;;;;;20.77;76.84;99816.87;2149843;82;21503;-84
2021/09/16 13:09:37;;;;;;;15.23;11.97;;;;;;;20.84;76.98;99818.63;2150944;82;20990;-82
2021/09/16 13:12:42;;;;;;;15.13;12.88;;;;;;;20.88;76.80;99817.87;2148865;82;20974;-84
2021/09/16 13:15:45;;;;;;;20.50;12.47;;;;;;;20.93;76.74;99815.28;2147192;81;21105;-84
2021/09/16 13:18:47;;;;;;;14.95;11.78;;;;;;;20.94;76.52;99812.86;2148479;82;21606;-82
2021/09/16 13:21:48;;;;;;;12.88;11.35;;;;;;;20.94;76.35;99808.81;2149942;82;20982;-83
2021/09/16 13:24:51;;;;;;;16.37;10.72;;;;;;;20.93;76.16;99811.77;2153052;82;20975;-82
2021/09/16 13:27:53;;;;;;;15.20;11.55;;;;;;;20.96;76.32;99811.28;2149729;82;21547;-82
2021/09/16 13:30:54;;;;;;;16.40;11.53;;;;;;;20.97;76.27;99807.52;2150250;82;21029;-82
2021/09/16 13:33:56;;;;;;;12.10;10.75;;;;;;;21.00;76.24;99805.68;2149667;82;21026;-84
2021/09/16 13:36:57;;;;;;;14.98;10.93;;;;;;;21.04;76.21;99808.20;2149087;82;21070;-83
2021/09/16 13:39:59;;;;;;;11.93;10.13;;;;;;;21.12;76.06;99813.70;2148734;82;21469;-83
2021/09/16 13:43:02;;;;;;;13.20;11.05;;;;;;;21.19;76.15;99815.19;2151415;82;21070;-80
2021/09/16 13:46:04;;;;;;;16.15;10.35;;;;;;;21.22;75.90;99816.05;2140166;82;21076;-81
2021/09/16 13:49:07;;;;;;;12.43;10.23;;;;;;;21.20;75.75;99816.00;2124817;81;20982;-81
2021/09/16 13:52:08;;;;;;;16.70;10.65;;;;;;;21.13;75.65;99811.31;2127772;82;21030;-82
2021/09/16 13:55:11;;;;;;;12.25;10.65;;;;;;;21.07;75.79;99813.10;2126658;82;20989;-81
2021/09/16 13:58:14;;;;;;;14.45;10.78;;;;;;;21.03;75.88;99812.78;2128113;82;21051;-81
2021/09/16 14:01:15;;;;;;;10.95;9.85;;;;;;;20.99;75.84;99806.22;2128571;81;21019;-81
2021/09/16 14:04:17;;;;;;;13.00;11.40;;;;;;;21.02;76.01;99811.13;2130194;82;20980;-79